createdAt,value
2022-08-12T00:00:22.277Z,76.50
2022-08-12T00:03:07.887Z,76.60
2022-08-12T00:06:01.839Z,76.50
2022-08-12T00:08:52.536Z,77.00
2022-08-12T00:11:38.425Z,77.10
2022-08-12T00:14:26.040Z,76.70
2022-08-12T00:17:12.640Z,76.60
2022-08-12T00:19:58.535Z,76.10
2022-08-12T00:22:44.504Z,76.40
2022-08-12T00:26:01.312Z,76.60
2022-08-12T00:28:36.289Z,77.00
2022-08-12T00:31:23.709Z,77.40
2022-08-12T00:34:09.349Z,77.70
2022-08-12T00:36:58.437Z,77.70
2022-08-12T00:39:48.758Z,77.70
2022-08-12T00:42:19.244Z,78.10
2022-08-12T00:44:48.364Z,78.70
2022-08-12T00:47:24.793Z,79.20
2022-08-12T00:49:55.874Z,79.00
2022-08-12T00:52:24.932Z,79.40
2022-08-12T00:54:57.244Z,79.40
2022-08-12T00:57:27.511Z,80.40
2022-08-12T00:59:58.225Z,80.50
2022-08-12T01:02:29.948Z,80.30
2022-08-12T01:05:18.016Z,80.20
2022-08-12T01:08:05.431Z,82.30
2022-08-12T01:10:54.248Z,82.00
2022-08-12T01:13:22.844Z,83.00
2022-08-12T01:15:53.446Z,82.70
2022-08-12T01:18:24.789Z,81.50
2022-08-12T01:21:04.912Z,82.20
2022-08-12T01:24:29.745Z,83.10
2022-08-12T01:26:56.335Z,82.60
2022-08-12T01:29:32.932Z,82.80
2022-08-12T01:32:06.419Z,85.40
2022-08-12T01:34:38.714Z,84.60
2022-08-12T01:37:08.918Z,84.50
2022-08-12T01:40:31.296Z,84.90
2022-08-12T01:42:34.548Z,84.20
2022-08-12T01:45:04.241Z,85.20
2022-08-12T01:47:43.726Z,85.60
2022-08-12T01:50:22.483Z,87.40
2022-08-12T01:52:59.190Z,87.50
2022-08-12T01:55:32.625Z,86.00
2022-08-12T01:58:13.181Z,86.60
2022-08-12T02:00:55.458Z,87.80
2022-08-12T02:03:59.833Z,86.70
2022-08-12T02:06:51.426Z,86.70
2022-08-12T02:09:47.476Z,86.70
2022-08-12T02:12:28.677Z,88.70
2022-08-12T02:15:13.006Z,87.30
2022-08-12T02:17:59.831Z,88.60
2022-08-12T02:20:51.682Z,88.10
2022-08-12T02:23:25.581Z,89.00
2022-08-12T02:25:57.087Z,90.10
2022-08-12T02:28:25.680Z,91.10
2022-08-12T02:30:56.324Z,90.40
2022-08-12T02:33:25.522Z,90.30
2022-08-12T02:35:55.581Z,90.00
2022-08-12T02:38:27.519Z,90.40
2022-08-12T02:40:57.196Z,91.60
2022-08-12T02:43:32.029Z,92.00
2022-08-12T02:46:09.299Z,91.90
2022-08-12T02:48:49.129Z,92.20
2022-08-12T02:51:20.709Z,91.10
2022-08-12T02:54:04.911Z,91.60
2022-08-12T02:56:37.146Z,92.10
2022-08-12T02:59:05.858Z,92.70
2022-08-12T03:01:42.566Z,92.70
2022-08-12T03:04:24.550Z,93.10
2022-08-12T03:07:01.342Z,93.00
2022-08-12T03:09:39.081Z,92.80
2022-08-12T03:12:25.132Z,92.40
2022-08-12T03:14:55.614Z,93.20
2022-08-12T03:17:31.390Z,93.50
2022-08-12T03:20:10.274Z,93.10
2022-08-12T03:22:40.846Z,93.80
2022-08-12T03:25:17.371Z,94.10
2022-08-12T03:27:55.703Z,95.20
2022-08-12T03:30:26.047Z,94.90
2022-08-12T03:32:57.678Z,94.80
2022-08-12T03:35:40.218Z,95.50
2022-08-12T03:38:16.179Z,96.60
2022-08-12T03:41:13.356Z,96.00
2022-08-12T03:44:10.833Z,96.40
2022-08-12T03:47:00.855Z,97.60
2022-08-12T03:49:48.298Z,98.50
2022-08-12T03:52:33.696Z,98.30
2022-08-12T03:55:19.165Z,99.10
2022-08-12T03:58:08.037Z,98.10
2022-08-12T04:00:37.751Z,99.10
2022-08-12T04:03:26.248Z,99.40
2022-08-12T04:05:57.102Z,99.60
2022-08-12T04:08:27.275Z,99.40
2022-08-12T04:11:13.639Z,99.30
2022-08-12T04:13:42.082Z,99.10
2022-08-12T04:16:14.619Z,99.50
2022-08-12T04:18:43.604Z,99.90
2022-08-12T04:21:13.257Z,99.90
2022-08-12T04:23:48.243Z,99.90
2022-08-12T04:26:17.467Z,99.90
2022-08-12T04:28:45.987Z,99.90
2022-08-12T04:31:14.569Z,99.90
2022-08-12T04:33:44.284Z,99.90
2022-08-12T04:36:14.348Z,99.90
2022-08-12T04:38:44.199Z,99.90
2022-08-12T04:41:13.269Z,99.90
2022-08-12T04:44:00.528Z,99.90
2022-08-12T04:46:33.526Z,99.90
2022-08-12T04:49:03.755Z,99.90
2022-08-12T04:51:34.237Z,99.90
2022-08-12T04:54:04.755Z,99.90
2022-08-12T04:56:35.468Z,99.90
2022-08-12T04:59:04.091Z,99.90
2022-08-12T05:01:32.953Z,99.90
2022-08-12T05:04:02.927Z,99.90
2022-08-12T05:06:32.823Z,99.90
2022-08-12T05:09:01.443Z,99.90
2022-08-12T05:11:30.156Z,99.90
2022-08-12T05:14:00.979Z,99.90
2022-08-12T05:16:34.277Z,99.90
2022-08-12T05:19:05.373Z,99.90
2022-08-12T05:21:42.881Z,99.90
2022-08-12T05:24:11.192Z,99.90
2022-08-12T05:26:39.462Z,99.90
2022-08-12T05:30:06.892Z,99.90
2022-08-12T05:32:00.960Z,99.90
2022-08-12T05:34:29.893Z,99.90
2022-08-12T05:37:00.268Z,99.90
2022-08-12T05:39:28.615Z,99.90
2022-08-12T05:41:57.853Z,99.90
2022-08-12T05:44:26.082Z,99.90
2022-08-12T05:46:54.321Z,99.90
2022-08-12T05:49:22.755Z,99.90
2022-08-12T05:51:51.061Z,99.90
2022-08-12T05:54:31.026Z,99.90
2022-08-12T05:57:11.593Z,99.90
2022-08-12T05:59:40.002Z,99.90
2022-08-12T06:02:13.720Z,99.90
2022-08-12T06:04:42.177Z,99.90
2022-08-12T06:07:59.518Z,99.90
2022-08-12T06:10:03.931Z,99.90
2022-08-12T06:12:32.198Z,99.90
2022-08-12T06:15:00.479Z,99.90
2022-08-12T06:17:31.072Z,99.90
2022-08-12T06:20:27.355Z,99.90
2022-08-12T06:22:48.890Z,99.90
2022-08-12T06:25:21.847Z,99.90
2022-08-12T06:28:07.840Z,99.90
2022-08-12T06:30:39.168Z,99.90
2022-08-12T06:33:21.958Z,99.90
2022-08-12T06:35:52.317Z,99.90
2022-08-12T06:38:27.098Z,99.90
2022-08-12T06:41:16.561Z,99.90
2022-08-12T06:44:05.725Z,99.70
2022-08-12T06:46:33.567Z,99.20
2022-08-12T06:49:02.694Z,99.00
2022-08-12T06:51:33.008Z,99.70
2022-08-12T06:54:02.537Z,99.90
2022-08-12T06:57:02.605Z,98.60
2022-08-12T06:59:21.497Z,97.70
2022-08-12T07:01:51.669Z,97.80
2022-08-12T07:04:38.366Z,96.20
2022-08-12T07:07:08.716Z,96.20
2022-08-12T07:10:01.583Z,95.50
2022-08-12T07:12:28.218Z,95.10
2022-08-12T07:14:57.338Z,95.80
2022-08-12T07:17:25.752Z,95.10
2022-08-12T07:19:57.039Z,94.90
2022-08-12T07:22:29.358Z,94.80
2022-08-12T07:25:11.410Z,94.80
2022-08-12T07:27:42.801Z,94.90
2022-08-12T07:30:12.557Z,95.50
2022-08-12T07:32:40.944Z,94.60
2022-08-12T07:35:10.004Z,94.90
2022-08-12T07:37:41.968Z,94.20
2022-08-12T07:40:12.292Z,93.70
2022-08-12T07:42:44.171Z,93.50
2022-08-12T07:45:13.471Z,94.10
2022-08-12T07:47:43.381Z,93.10
2022-08-12T07:50:12.883Z,92.50
2022-08-12T07:52:43.878Z,92.30
2022-08-12T07:55:13.759Z,91.70
2022-08-12T07:57:57.817Z,91.90
2022-08-12T08:00:27.470Z,92.00
2022-08-12T08:02:56.213Z,90.20
2022-08-12T08:05:26.599Z,86.30
2022-08-12T08:07:55.686Z,85.10
2022-08-12T08:10:23.869Z,84.60
2022-08-12T08:12:56.058Z,84.50
2022-08-12T08:15:44.418Z,84.90
2022-08-12T08:18:25.854Z,79.90
2022-08-12T08:20:56.209Z,81.10
2022-08-12T08:23:46.438Z,76.70
2022-08-12T08:28:45.826Z,73.60
2022-08-12T08:31:15.113Z,73.70
2022-08-12T08:34:05.416Z,71.40
2022-08-12T08:36:31.521Z,69.50
2022-08-12T08:38:59.815Z,63.90
2022-08-12T08:42:17.010Z,67.90
2022-08-12T08:44:38.426Z,65.10
2022-08-12T08:47:07.378Z,60.60
2022-08-12T08:49:37.352Z,63.50
2022-08-12T08:52:07.484Z,65.50
2022-08-12T08:54:37.614Z,62.00
2022-08-12T08:57:08.254Z,59.80
2022-08-12T08:59:37.996Z,58.10
2022-08-12T09:02:07.565Z,57.40
2022-08-12T09:05:14.488Z,62.20
2022-08-12T09:07:51.683Z,62.00
2022-08-12T09:13:29.193Z,56.80
2022-08-12T09:16:13.717Z,57.00
2022-08-12T09:18:43.556Z,56.10
2022-08-12T09:21:12.662Z,53.70
2022-08-12T09:24:00.666Z,55.90
2022-08-12T09:26:31.256Z,54.40
2022-08-12T09:29:02.603Z,53.90
2022-08-12T09:32:04.292Z,52.50
2022-08-12T09:34:33.783Z,56.50
2022-08-12T09:37:20.287Z,52.80
2022-08-12T09:40:05.967Z,52.40
2022-08-12T09:43:16.018Z,52.10
2022-08-12T09:46:07.082Z,52.30
2022-08-12T09:48:39.367Z,54.30
2022-08-12T09:51:10.854Z,50.50
2022-08-12T09:54:08.927Z,49.30
2022-08-12T09:57:03.182Z,50.20
2022-08-12T10:00:15.232Z,51.10
2022-08-12T10:02:44.049Z,50.50
2022-08-12T10:05:09.192Z,50.60
2022-08-12T10:07:41.857Z,48.20
2022-08-12T10:10:24.658Z,50.90
2022-08-12T10:13:34.848Z,52.30
2022-08-12T10:16:06.369Z,49.50
2022-08-12T10:18:51.805Z,48.90
2022-08-12T10:21:23.951Z,48.90
2022-08-12T10:24:05.198Z,49.80
2022-08-12T10:26:52.553Z,48.70
2022-08-12T10:30:37.613Z,50.60
2022-08-12T10:32:44.546Z,51.60
2022-08-12T10:35:16.618Z,51.20
2022-08-12T10:38:33.599Z,50.80
2022-08-12T10:40:55.618Z,51.30
2022-08-12T10:43:54.182Z,48.20
2022-08-12T10:46:30.444Z,50.10
2022-08-12T10:49:06.553Z,49.70
2022-08-12T10:52:05.236Z,48.90
2022-08-12T10:54:42.806Z,47.50
2022-08-12T10:57:17.916Z,48.20
2022-08-12T11:00:30.737Z,46.10
2022-08-12T11:04:23.365Z,47.00
2022-08-12T11:07:06.727Z,48.70
2022-08-12T11:08:42.008Z,48.70
2022-08-12T11:12:08.492Z,49.10
2022-08-12T11:14:13.056Z,48.80
2022-08-12T11:17:34.358Z,49.30
2022-08-12T11:19:46.516Z,46.10
2022-08-12T11:22:14.694Z,45.60
2022-08-12T11:24:51.397Z,46.10
2022-08-12T11:27:21.569Z,47.80
2022-08-12T11:30:01.562Z,45.90
2022-08-12T11:32:39.169Z,45.30
2022-08-12T11:35:11.638Z,44.00
2022-08-12T11:37:58.925Z,45.80
2022-08-12T11:40:28.583Z,45.40
2022-08-12T11:43:17.924Z,46.20
2022-08-12T11:45:52.936Z,44.10
2022-08-12T11:48:27.055Z,45.50
2022-08-12T11:50:55.944Z,45.40
2022-08-12T11:53:57.661Z,44.70
2022-08-12T11:56:12.548Z,44.10
2022-08-12T12:02:01.964Z,44.80
2022-08-12T12:04:29.109Z,41.80
2022-08-12T12:07:06.987Z,43.10
2022-08-12T12:09:42.868Z,45.30
2022-08-12T12:12:22.346Z,43.60
2022-08-12T12:14:54.958Z,42.70
2022-08-12T12:17:24.481Z,43.60
2022-08-12T12:19:53.240Z,43.00
2022-08-12T12:22:23.205Z,44.10
2022-08-12T12:24:55.484Z,45.60
2022-08-12T12:28:04.197Z,41.00
2022-08-12T12:30:25.229Z,43.40
2022-08-12T12:32:58.915Z,43.50
2022-08-12T12:36:17.589Z,41.60
2022-08-12T12:38:17.538Z,43.10
2022-08-12T12:40:50.410Z,43.90
2022-08-12T12:43:28.881Z,45.10
2022-08-12T12:46:08.982Z,41.80
2022-08-12T12:48:38.834Z,41.20
2022-08-12T12:51:48.907Z,41.10
2022-08-12T12:54:10.077Z,41.40
2022-08-12T12:56:42.559Z,42.50
2022-08-12T12:59:55.570Z,41.40
2022-08-12T13:02:07.823Z,39.90
2022-08-12T13:04:37.812Z,42.20
2022-08-12T13:07:06.992Z,42.20
2022-08-12T13:09:36.374Z,41.60
2022-08-12T13:12:10.584Z,43.50
2022-08-12T13:14:40.015Z,43.20
2022-08-12T13:17:14.456Z,43.90
2022-08-12T13:19:48.277Z,42.00
2022-08-12T13:22:21.290Z,44.30
2022-08-12T13:24:52.214Z,43.50
2022-08-12T13:27:34.686Z,41.60
2022-08-12T13:30:10.633Z,41.60
2022-08-12T13:32:41.811Z,42.80
2022-08-12T13:35:19.775Z,42.60
2022-08-12T13:38:02.767Z,43.30
2022-08-12T13:40:33.656Z,43.10
2022-08-12T13:43:05.513Z,40.90
2022-08-12T13:45:35.614Z,40.90
2022-08-12T13:48:08.085Z,43.20
2022-08-12T13:50:38.915Z,44.10
2022-08-12T13:53:23.821Z,44.10
2022-08-12T13:56:01.627Z,44.60
2022-08-12T13:58:34.649Z,45.10
2022-08-12T14:01:06.366Z,43.40
2022-08-12T14:03:49.966Z,42.90
2022-08-12T14:06:20.820Z,44.40
2022-08-12T14:08:50.679Z,43.70
2022-08-12T14:11:25.084Z,43.40
2022-08-12T14:14:02.738Z,43.50
2022-08-12T14:16:46.755Z,43.10
2022-08-12T14:19:22.284Z,45.50
2022-08-12T14:22:00.828Z,44.00
2022-08-12T14:24:35.812Z,42.60
2022-08-12T14:27:08.870Z,45.30
2022-08-12T14:30:04.080Z,43.10
2022-08-12T14:32:27.262Z,45.60
2022-08-12T14:34:56.976Z,45.20
2022-08-12T14:37:56.444Z,42.30
2022-08-12T14:40:18.581Z,43.60
2022-08-12T14:42:47.432Z,44.30
2022-08-12T14:45:15.982Z,45.20
2022-08-12T14:47:53.732Z,46.20
2022-08-12T14:50:37.410Z,45.20
2022-08-12T14:59:20.317Z,45.70
2022-08-12T15:01:49.234Z,47.40
2022-08-12T15:04:29.134Z,46.20
2022-08-12T15:07:00.267Z,46.80
2022-08-12T15:09:29.613Z,45.60
2022-08-12T15:12:03.558Z,44.60
2022-08-12T15:14:32.533Z,44.90
2022-08-12T15:17:06.528Z,46.20
2022-08-12T15:20:11.769Z,44.70
2022-08-12T15:22:37.480Z,46.60
2022-08-12T15:25:09.041Z,45.70
2022-08-12T15:28:03.651Z,46.70
2022-08-12T15:30:33.775Z,46.80
2022-08-12T15:33:12.767Z,45.90
2022-08-12T15:35:53.192Z,47.10
2022-08-12T15:38:28.286Z,46.90
2022-08-12T15:40:59.078Z,48.30
2022-08-12T15:44:16.333Z,47.70
2022-08-12T15:46:21.304Z,46.30
2022-08-12T15:48:54.935Z,48.60
2022-08-12T15:51:57.297Z,47.80
2022-08-12T15:54:34.343Z,48.30
2022-08-12T15:57:08.067Z,47.20
2022-08-12T16:00:03.721Z,46.70
2022-08-12T16:02:29.313Z,47.50
2022-08-12T16:04:58.286Z,48.10
2022-08-12T16:07:40.839Z,48.60
2022-08-12T16:10:11.917Z,48.60
2022-08-12T16:12:55.177Z,48.00
2022-08-12T16:15:26.333Z,48.60
2022-08-12T16:18:14.459Z,49.30
2022-08-12T16:20:47.491Z,48.10
2022-08-12T16:23:27.020Z,49.20
2022-08-12T16:26:15.064Z,48.50
2022-08-12T16:28:44.205Z,49.50
2022-08-12T16:31:23.471Z,48.70
2022-08-12T16:33:59.262Z,49.10
2022-08-12T16:36:29.708Z,49.60
2022-08-12T16:39:01.412Z,50.30
2022-08-12T16:41:39.376Z,49.00
2022-08-12T16:44:09.217Z,49.00
2022-08-12T16:46:38.082Z,49.80
2022-08-12T16:49:08.818Z,50.10
2022-08-12T16:51:41.879Z,49.50
2022-08-12T16:54:15.961Z,49.70
2022-08-12T16:56:54.861Z,50.20
2022-08-12T16:59:30.796Z,50.60
2022-08-12T17:02:00.383Z,49.80
2022-08-12T17:04:29.227Z,50.80
2022-08-12T17:06:57.793Z,50.70
2022-08-12T17:09:26.392Z,51.10
2022-08-12T17:12:10.063Z,51.20
2022-08-12T17:14:38.349Z,51.00
2022-08-12T17:17:18.641Z,51.30
2022-08-12T17:20:35.410Z,52.30
2022-08-12T17:22:56.534Z,52.30
2022-08-12T17:25:25.921Z,51.10
2022-08-12T17:28:02.242Z,51.10
2022-08-12T17:30:32.247Z,51.10
2022-08-12T17:33:02.836Z,51.90
2022-08-12T17:35:37.362Z,51.90
2022-08-12T17:38:11.522Z,51.70
2022-08-12T17:40:41.120Z,51.80
2022-08-12T17:43:55.616Z,52.80
2022-08-12T17:46:02.263Z,52.60
2022-08-12T17:48:34.394Z,53.10
2022-08-12T17:51:15.728Z,52.70
2022-08-12T17:54:11.376Z,52.90
2022-08-12T17:56:37.391Z,52.70
2022-08-12T17:59:12.261Z,53.20
2022-08-12T18:01:45.703Z,52.90
2022-08-12T18:04:22.101Z,53.30
2022-08-12T18:06:52.454Z,53.20
2022-08-12T18:09:24.467Z,53.80
2022-08-12T18:12:13.067Z,53.80
2022-08-12T18:14:47.490Z,54.30
2022-08-12T18:17:18.024Z,54.20
2022-08-12T18:20:04.831Z,54.60
2022-08-12T18:22:35.185Z,54.60
2022-08-12T18:25:06.543Z,54.70
2022-08-12T18:27:47.170Z,54.70
2022-08-12T18:30:28.888Z,54.90
2022-08-12T18:33:03.670Z,55.60
2022-08-12T18:35:47.045Z,55.00
2022-08-12T18:38:22.403Z,55.50
2022-08-12T18:41:09.764Z,56.00
2022-08-12T18:43:58.571Z,55.80
2022-08-12T18:46:48.916Z,55.90
2022-08-12T18:49:29.638Z,55.30
2022-08-12T18:52:04.279Z,55.30
2022-08-12T18:54:49.773Z,55.30
2022-08-12T18:57:46.101Z,55.60
2022-08-12T19:00:21.324Z,55.90
2022-08-12T19:02:53.825Z,55.60
2022-08-12T19:05:25.473Z,56.80
2022-08-12T19:08:13.672Z,55.70
2022-08-12T19:10:50.004Z,55.50
2022-08-12T19:13:37.068Z,55.50
2022-08-12T19:16:10.868Z,55.30
2022-08-12T19:18:44.756Z,55.50
2022-08-12T19:21:16.721Z,55.50
2022-08-12T19:24:08.501Z,55.80
2022-08-12T19:26:36.671Z,56.10
2022-08-12T19:29:08.240Z,56.90
2022-08-12T19:31:44.740Z,56.80
2022-08-12T19:37:26.870Z,56.50
2022-08-12T19:40:09.601Z,56.90
2022-08-12T19:42:54.210Z,56.70
2022-08-12T19:45:43.516Z,56.70
2022-08-12T19:48:18.736Z,56.70
2022-08-12T19:50:52.132Z,57.10
2022-08-12T19:53:22.918Z,58.50
2022-08-12T19:55:53.346Z,58.20
2022-08-12T19:58:23.136Z,58.60
2022-08-12T20:00:55.831Z,57.70
2022-08-12T20:03:39.561Z,58.00
2022-08-12T20:06:13.796Z,57.70
2022-08-12T20:08:48.731Z,59.30
2022-08-12T20:12:13.269Z,59.30
2022-08-12T20:14:09.990Z,59.50
2022-08-12T20:16:57.273Z,59.70
2022-08-12T20:19:52.501Z,59.60
2022-08-12T20:22:24.143Z,59.80
2022-08-12T20:25:01.465Z,59.80
2022-08-12T20:28:03.355Z,60.00
2022-08-12T20:30:52.513Z,60.10
2022-08-12T20:33:18.456Z,60.10
2022-08-12T20:36:13.783Z,59.90
2022-08-12T20:38:45.823Z,60.10
2022-08-12T20:41:16.790Z,60.00
2022-08-12T20:43:49.362Z,59.90
2022-08-12T20:46:19.135Z,60.40
2022-08-12T20:48:54.859Z,60.20
2022-08-12T20:51:23.682Z,60.50
2022-08-12T20:53:59.647Z,60.10
2022-08-12T20:56:33.534Z,60.40
2022-08-12T20:59:05.472Z,60.40
2022-08-12T21:01:46.651Z,60.60
2022-08-12T21:04:36.606Z,60.80
2022-08-12T21:07:09.592Z,60.90
2022-08-12T21:09:42.778Z,61.40
2022-08-12T21:12:31.230Z,61.40
2022-08-12T21:15:16.567Z,61.80
2022-08-12T21:18:09.837Z,62.10
2022-08-12T21:20:35.279Z,62.60
2022-08-12T21:23:05.814Z,63.00
2022-08-12T21:25:45.288Z,63.60
2022-08-12T21:28:14.526Z,63.90
2022-08-12T21:30:54.898Z,64.80
2022-08-12T21:33:32.146Z,64.80
2022-08-12T21:36:22.921Z,64.90
2022-08-12T21:39:18.207Z,65.20
2022-08-12T21:41:50.953Z,65.40
2022-08-12T21:44:23.940Z,65.50
2022-08-12T21:47:19.771Z,65.40
2022-08-12T21:50:06.144Z,65.80
2022-08-12T21:52:36.950Z,66.40
2022-08-12T21:55:18.494Z,66.00
2022-08-12T21:57:54.910Z,66.20
2022-08-12T22:00:35.125Z,66.50
2022-08-12T22:03:25.106Z,67.00
2022-08-12T22:06:31.481Z,67.20
2022-08-12T22:09:15.991Z,67.70
2022-08-12T22:11:49.048Z,68.20
2022-08-12T22:14:27.272Z,68.40
2022-08-12T22:16:56.527Z,68.80
2022-08-12T22:19:24.642Z,69.20
2022-08-12T22:21:55.540Z,69.50
2022-08-12T22:24:26.936Z,70.20
2022-08-12T22:26:57.883Z,70.10
2022-08-12T22:29:45.234Z,70.20
2022-08-12T22:32:15.804Z,70.40
2022-08-12T22:34:44.750Z,70.80
2022-08-12T22:37:20.169Z,71.60
2022-08-12T22:39:49.497Z,71.70
2022-08-12T22:42:41.541Z,72.00
2022-08-12T22:45:29.316Z,72.20
2022-08-12T22:47:58.728Z,72.60
2022-08-12T22:50:29.510Z,72.90
2022-08-12T22:53:16.175Z,73.30
2022-08-12T22:55:58.711Z,73.70
2022-08-12T22:58:38.468Z,74.00
2022-08-12T23:01:21.338Z,74.30
2022-08-12T23:04:00.477Z,74.80
2022-08-12T23:06:31.246Z,74.90
2022-08-12T23:08:59.504Z,75.30
2022-08-12T23:11:33.737Z,75.40
2022-08-12T23:14:08.791Z,75.70
2022-08-12T23:16:41.429Z,76.70
2022-08-12T23:19:17.561Z,76.50
2022-08-12T23:22:06.660Z,76.90
2022-08-12T23:24:41.205Z,76.90
2022-08-12T23:27:50.119Z,76.90
2022-08-12T23:30:24.654Z,77.20
2022-08-12T23:32:59.969Z,77.50
2022-08-12T23:35:53.517Z,78.10
2022-08-12T23:38:30.404Z,78.20
2022-08-12T23:41:01.196Z,78.60
2022-08-12T23:43:39.472Z,78.80
2022-08-12T23:46:10.295Z,78.60
2022-08-12T23:48:40.771Z,78.90
2022-08-12T23:51:22.793Z,78.90
2022-08-12T23:53:55.156Z,79.00
2022-08-12T23:56:24.776Z,79.20
2022-08-12T23:58:57.559Z,79.40
